Time;durP1;ratioP1;P1;durP2;ratioP2;P2;SDS_P1;SDS_P2;PMS_P1;PMS_P2;Temp;Humidity;BMP_temperature;BMP_pressure;BME280_temperature;BME280_humidity;BME280_pressure;Samples;Min_cycle;Max_cycle;Signal;HPM_P1;HPM_P2
2022/08/11 00:02:33;;;;;;;10.82;6.80;;;18.20;99.90;;;;;;6119737;23;20022;-89
2022/08/11 00:05:06;;;;;;;10.70;6.68;;;18.20;99.90;;;;;;6146326;22;20021;-88
2022/08/11 00:07:32;;;;;;;8.98;6.32;;;18.20;99.90;;;;;;6144182;23;20426;-88
2022/08/11 00:09:59;;;;;;;9.07;6.43;;;18.20;99.90;;;;;;6146100;23;20071;-89
2022/08/11 00:12:25;;;;;;;8.40;5.90;;;18.20;99.90;;;;;;6146414;22;20025;-88
2022/08/11 00:14:58;;;;;;;8.90;7.05;;;18.10;99.90;;;;;;6145921;23;20025;-88
2022/08/11 00:17:31;;;;;;;9.52;6.93;;;18.10;99.90;;;;;;6119978;23;20096;-89
2022/08/11 00:20:04;;;;;;;10.82;8.20;;;18.10;99.90;;;;;;6144188;23;20028;-88
2022/08/11 00:22:31;;;;;;;11.63;9.00;;;18.10;99.90;;;;;;6119625;23;20374;-88
2022/08/11 00:24:59;;;;;;;14.77;11.90;;;18.10;99.90;;;;;;6119682;23;20365;-88
2022/08/11 00:27:36;;;;;;;13.82;11.57;;;18.00;99.90;;;;;;6145898;23;20515;-88
2022/08/11 00:30:04;;;;;;;16.65;13.43;;;18.10;99.90;;;;;;6144247;23;20014;-88
2022/08/11 00:32:31;;;;;;;18.85;16.02;;;18.00;99.90;;;;;;6146001;23;20017;-88
2022/08/11 00:34:58;;;;;;;20.77;17.75;;;18.00;99.90;;;;;;6145870;23;20014;-89
2022/08/11 00:37:25;;;;;;;21.45;19.15;;;17.90;99.90;;;;;;6119175;23;20353;-88
2022/08/11 00:39:54;;;;;;;23.75;21.30;;;17.90;99.90;;;;;;6143888;23;20022;-88
2022/08/11 00:42:33;;;;;;;23.80;21.40;;;17.90;99.90;;;;;;6122970;23;20136;-88
2022/08/11 00:45:17;;;;;;;23.67;21.17;;;17.90;99.90;;;;;;6149385;23;20307;-88
2022/08/11 00:47:59;;;;;;;25.55;22.80;;;17.90;99.90;;;;;;6122213;23;20067;-89
2022/08/11 00:50:39;;;;;;;24.10;21.40;;;17.80;99.90;;;;;;6149426;23;20061;-88
2022/08/11 00:53:29;;;;;;;24.98;21.67;;;17.80;99.90;;;;;;6149356;23;20021;-88
2022/08/11 00:56:18;;;;;;;26.33;23.10;;;17.80;99.90;;;;;;6146511;23;20063;-89
2022/08/11 00:59:26;;;;;;;25.42;22.60;;;17.80;99.90;;;;;;6091939;23;20111;-88
2022/08/11 01:01:56;;;;;;;25.80;22.33;;;17.70;99.90;;;;;;6138937;23;20029;-88
2022/08/11 01:04:53;;;;;;;26.42;23.67;;;17.80;99.90;;;;;;6147753;23;20337;-88
2022/08/11 01:07:54;;;;;;;23.75;21.10;;;17.70;99.90;;;;;;6146793;23;20079;-88
2022/08/11 01:10:32;;;;;;;24.65;21.17;;;17.70;99.90;;;;;;6147709;23;20014;-88
2022/08/11 01:13:18;;;;;;;23.60;18.58;;;17.60;99.90;;;;;;6146870;23;20461;-88
2022/08/11 01:15:50;;;;;;;24.73;17.95;;;17.60;99.90;;;;;;6122338;23;20024;-89
2022/08/11 01:18:53;;;;;;;21.08;17.08;;;17.60;99.90;;;;;;6149080;23;20093;-88
2022/08/11 01:21:56;;;;;;;16.90;15.10;;;17.60;99.90;;;;;;6146871;23;20546;-88
2022/08/11 01:24:34;;;;;;;18.60;14.43;;;17.50;99.90;;;;;;6147516;23;20025;-88
2022/08/11 01:27:25;;;;;;;17.30;14.45;;;17.50;99.90;;;;;;6147098;23;20039;-88
2022/08/11 01:30:16;;;;;;;19.02;13.43;;;17.50;99.90;;;;;;6146670;23;20070;-88
2022/08/11 01:33:11;;;;;;;15.90;13.20;;;17.50;99.90;;;;;;6146599;23;20464;-88
2022/08/11 01:36:19;;;;;;;15.85;12.02;;;17.40;99.90;;;;;;6146606;23;20017;-88
2022/08/11 01:39:23;;;;;;;15.23;10.73;;;17.40;99.90;;;;;;6148224;23;20049;-88
2022/08/11 01:45:29;;;;;;;13.70;10.55;;;17.30;99.90;;;;;;6146749;23;20021;-88
2022/08/11 01:48:19;;;;;;;14.38;10.68;;;17.30;99.90;;;;;;6146617;22;20025;-88
2022/08/11 01:51:09;;;;;;;13.45;9.70;;;17.20;99.90;;;;;;6120976;23;20017;-88
2022/08/11 01:54:08;;;;;;;10.98;8.80;;;17.20;99.90;;;;;;6144885;23;20026;-88
2022/08/11 01:57:08;;;;;;;12.93;9.15;;;17.20;99.90;;;;;;6144821;22;20566;-88
2022/08/11 01:59:47;;;;;;;13.43;8.77;;;17.20;99.90;;;;;;6144448;22;20056;-88
2022/08/11 02:05:24;;;;;;;11.95;8.05;;;17.10;99.90;;;;;;6144360;23;20025;-87
2022/08/11 02:08:21;;;;;;;10.68;8.45;;;17.10;99.90;;;;;;6144502;23;20021;-87
2022/08/11 02:14:34;;;;;;;13.15;8.38;;;17.00;99.90;;;;;;6146399;23;20101;-87
2022/08/11 02:17:05;;;;;;;11.95;7.68;;;17.00;99.90;;;;;;6056007;23;20023;-89
2022/08/11 02:25:40;;;;;;;10.05;8.10;;;16.90;99.90;;;;;;6056202;23;20022;-88
2022/08/11 02:28:30;;;;;;;13.23;7.85;;;16.80;99.90;;;;;;6032192;23;20118;-88
2022/08/11 02:35:10;;;;;;;11.07;8.10;;;16.80;99.90;;;;;;5975540;23;20498;-88
2022/08/11 02:38:00;;;;;;;11.82;7.38;;;16.80;99.90;;;;;;5975273;23;20102;-88
2022/08/11 02:42:21;;;;;;;11.95;7.13;;;16.70;99.90;;;;;;5999284;23;20074;-88
2022/08/11 02:44:16;;;;;;;9.70;7.65;;;16.70;99.90;;;;;;5975341;23;20406;-88
2022/08/11 02:46:55;;;;;;;9.93;7.28;;;16.70;99.90;;;;;;5998338;23;20050;-88
2022/08/11 02:49:55;;;;;;;11.07;7.50;;;16.60;99.90;;;;;;5975777;23;20070;-87
2022/08/11 02:52:46;;;;;;;11.15;7.50;;;16.60;99.90;;;;;;6020722;23;20399;-88
2022/08/11 02:55:38;;;;;;;10.35;6.80;;;16.60;99.90;;;;;;6031846;23;20026;-87
2022/08/11 02:58:34;;;;;;;10.43;8.18;;;16.50;99.90;;;;;;6032248;23;20585;-88
2022/08/11 03:01:02;;;;;;;11.63;8.23;;;16.50;99.90;;;;;;6032665;23;20027;-88
2022/08/11 03:04:04;;;;;;;12.18;7.95;;;16.60;99.90;;;;;;6031323;23;20114;-88
2022/08/11 03:06:44;;;;;;;12.82;8.10;;;16.50;99.90;;;;;;6139165;23;20013;-88
2022/08/11 03:09:39;;;;;;;11.05;8.15;;;16.60;99.90;;;;;;6147140;22;20025;-88
2022/08/11 03:18:23;;;;;;;11.65;8.43;;;16.50;99.90;;;;;;6146292;23;20342;-89
2022/08/11 03:21:07;;;;;;;11.75;8.70;;;16.60;99.90;;;;;;6145922;23;20438;-88
2022/08/11 03:23:57;;;;;;;15.50;9.30;;;16.50;99.90;;;;;;6144446;23;20021;-88
2022/08/11 03:26:40;;;;;;;13.50;9.57;;;16.50;99.90;;;;;;6144830;23;20029;-88
2022/08/11 03:29:22;;;;;;;11.35;8.68;;;16.50;99.90;;;;;;6120276;23;20013;-88
2022/08/11 03:32:10;;;;;;;10.40;7.38;;;16.40;99.90;;;;;;6143980;23;20017;-87
2022/08/11 03:34:38;;;;;;;14.07;8.52;;;16.40;99.90;;;;;;6144848;23;20017;-88
2022/08/11 03:41:41;;;;;;;12.73;9.15;;;16.40;99.90;;;;;;6144432;23;20411;-88
2022/08/11 03:43:26;;;;;;;11.95;8.98;;;16.40;99.90;;;;;;6146084;23;20061;-88
2022/08/11 03:46:15;;;;;;;12.32;10.10;;;16.30;99.90;;;;;;6145402;23;20522;-87
2022/08/11 03:48:59;;;;;;;14.20;9.63;;;16.30;99.90;;;;;;6146043;23;20083;-88
2022/08/11 03:51:53;;;;;;;13.52;10.48;;;16.30;99.90;;;;;;6120035;23;20022;-87
2022/08/11 03:54:36;;;;;;;13.40;9.90;;;16.30;99.90;;;;;;6144634;23;20025;-88
2022/08/11 03:57:39;;;;;;;12.25;9.18;;;16.20;99.90;;;;;;6120184;23;20307;-88
2022/08/11 04:00:15;;;;;;;14.40;9.52;;;16.20;99.90;;;;;;6146185;23;20021;-88
2022/08/11 04:03:09;;;;;;;13.05;9.48;;;16.20;99.90;;;;;;6143790;23;20143;-88
2022/08/11 04:05:43;;;;;;;15.32;10.00;;;16.20;99.90;;;;;;6144268;23;20018;-88
2022/08/11 04:08:32;;;;;;;;;;;16.20;99.90;;;;;;6144948;23;20070;-87
2022/08/11 04:11:16;;;;;;;14.32;9.63;;;16.20;99.90;;;;;;6146577;23;19923;-88
2022/08/11 04:17:38;;;;;;;13.65;9.60;;;16.10;99.90;;;;;;6144130;23;20021;-88
2022/08/11 04:20:42;;;;;;;16.02;10.82;;;16.10;99.90;;;;;;6146268;23;20021;-87
2022/08/11 04:23:49;;;;;;;16.08;11.27;;;16.10;99.90;;;;;;6144315;23;20349;-87
2022/08/11 04:26:49;;;;;;;17.42;12.50;;;16.10;99.90;;;;;;6065082;23;20018;-88
2022/08/11 04:29:33;;;;;;;18.10;12.20;;;16.10;99.90;;;;;;6113348;23;20056;-88
2022/08/11 04:32:19;;;;;;;16.90;11.80;;;16.10;99.90;;;;;;6113793;23;20018;-87
2022/08/11 04:35:06;;;;;;;16.60;12.60;;;16.10;99.90;;;;;;6088694;23;20040;-89
2022/08/11 04:38:10;;;;;;;18.42;13.52;;;16.20;99.90;;;;;;6074672;23;20022;-89
2022/08/11 04:40:47;;;;;;;18.45;13.20;;;16.20;99.90;;;;;;6045090;23;20551;-88
2022/08/11 04:43:30;;;;;;;19.63;12.85;;;16.20;99.90;;;;;;6113043;23;20022;-88
2022/08/11 04:46:12;;;;;;;17.90;12.90;;;16.20;99.90;;;;;;6089050;23;20056;-87
2022/08/11 05:07:48;;;;;;;16.70;11.88;;;16.20;99.90;;;;;;6143847;23;20450;-88
2022/08/11 05:10:35;;;;;;;15.13;9.80;;;16.20;99.90;;;;;;6144433;23;20024;-88
2022/08/11 05:36:33;;;;;;;17.15;12.48;;;16.30;99.90;;;;;;6147503;23;20026;-87
2022/08/11 05:58:39;;;;;;;19.63;13.07;;;16.50;99.90;;;;;;6144983;23;20043;-87
2022/08/11 06:01:06;;;;;;;17.95;12.00;;;16.50;99.90;;;;;;6146244;23;20449;-88
2022/08/11 06:04:13;;;;;;;15.35;11.50;;;16.60;99.90;;;;;;6147040;23;20104;-88
2022/08/11 06:06:21;;;;;;;16.70;11.95;;;16.60;99.90;;;;;;6144076;23;20098;-88
2022/08/11 06:08:47;;;;;;;19.60;12.75;;;16.60;99.90;;;;;;6146947;22;20122;-88
2022/08/11 06:11:17;;;;;;;20.00;13.00;;;16.70;99.90;;;;;;6146061;23;20089;-88
2022/08/11 06:13:44;;;;;;;16.73;11.60;;;16.70;99.90;;;;;;6144740;23;20053;-88
2022/08/11 06:16:13;;;;;;;15.43;12.23;;;16.70;99.90;;;;;;6144846;23;20017;-88
2022/08/11 06:18:39;;;;;;;16.83;11.43;;;16.70;99.90;;;;;;6144475;23;20096;-87
2022/08/11 06:21:10;;;;;;;16.25;10.70;;;16.80;99.90;;;;;;6147140;23;20060;-88
2022/08/11 06:23:37;;;;;;;14.70;10.65;;;16.80;99.90;;;;;;6146836;23;20062;-88
2022/08/11 06:26:08;;;;;;;14.38;10.48;;;16.90;99.90;;;;;;6145992;23;20017;-88
2022/08/11 06:28:36;;;;;;;14.63;10.75;;;16.90;99.90;;;;;;6145157;23;20010;-88
2022/08/11 06:31:17;;;;;;;14.50;9.90;;;16.90;99.90;;;;;;6144854;23;20018;-88
2022/08/11 06:33:49;;;;;;;17.15;11.02;;;17.00;99.90;;;;;;6144900;23;20021;-88
2022/08/11 06:36:38;;;;;;;13.75;10.18;;;17.00;99.90;;;;;;6145214;23;20017;-87
2022/08/11 06:39:25;;;;;;;13.73;10.18;;;17.00;99.90;;;;;;6143914;23;20529;-88
2022/08/11 06:42:04;;;;;;;14.35;9.85;;;17.10;99.90;;;;;;6144360;23;20021;-87
2022/08/11 06:44:38;;;;;;;12.27;9.13;;;17.20;99.90;;;;;;6146112;23;20021;-87
2022/08/11 06:47:06;;;;;;;;;;;17.20;99.90;;;;;;6147212;23;20032;-88
2022/08/11 06:52:32;;;;;;;18.88;8.95;;;17.30;99.90;;;;;;6144901;23;20104;-88
2022/08/11 06:55:05;;;;;;;14.52;9.85;;;17.30;99.90;;;;;;6145757;23;20484;-87
2022/08/11 07:00:27;;;;;;;13.32;9.05;;;17.40;99.90;;;;;;6144702;23;20029;-88
2022/08/11 07:03:07;;;;;;;16.83;9.88;;;17.50;99.90;;;;;;6146103;22;20025;-88
2022/08/11 07:05:49;;;;;;;10.93;8.68;;;17.60;99.90;;;;;;6146307;22;20092;-88
2022/08/11 07:17:20;;;;;;;12.60;8.20;;;17.80;99.90;;;;;;6144470;23;20025;-88
2022/08/11 07:31:24;;;;;;;10.75;7.22;;;18.20;99.90;;;;;;6146296;23;20445;-88
2022/08/11 07:33:58;;;;;;;14.43;7.80;;;18.20;99.90;;;;;;6170110;23;20020;-89
2022/08/11 07:36:27;;;;;;;9.13;6.38;;;18.30;99.90;;;;;;6144647;23;20021;-88
2022/08/11 07:38:55;;;;;;;7.45;6.05;;;18.40;99.90;;;;;;6119319;23;20078;-88
2022/08/11 07:41:23;;;;;;;8.25;6.28;;;18.40;99.90;;;;;;6144859;23;20072;-88
2022/08/11 07:43:53;;;;;;;13.13;6.50;;;18.60;99.90;;;;;;6144544;23;20014;-88
2022/08/11 07:54:38;;;;;;;9.52;5.15;;;18.90;99.90;;;;;;6143919;23;20404;-88
2022/08/11 08:19:13;;;;;;;6.07;3.80;;;20.90;99.90;;;;;;6146448;23;20033;-89
2022/08/11 08:21:39;;;;;;;8.55;2.85;;;21.10;99.90;;;;;;6143607;23;20049;-88
2022/08/11 08:24:06;;;;;;;10.25;3.40;;;21.30;99.90;;;;;;6146528;23;20047;-88
2022/08/11 08:32:03;;;;;;;7.47;2.60;;;22.00;99.90;;;;;;6145208;23;20021;-89
2022/08/11 08:34:29;;;;;;;5.80;2.83;;;22.20;99.90;;;;;;6146109;23;20021;-89
2022/08/11 08:36:55;;;;;;;6.68;2.38;;;22.30;99.90;;;;;;6144424;23;20018;-90
2022/08/11 08:39:22;;;;;;;5.63;2.13;;;22.50;99.90;;;;;;6146085;23;20334;-89
2022/08/11 08:41:55;;;;;;;6.78;2.25;;;22.70;99.90;;;;;;6119252;23;20036;-88
2022/08/11 08:44:24;;;;;;;4.60;2.08;;;22.90;99.90;;;;;;6144468;23;20420;-89
2022/08/11 08:46:55;;;;;;;7.10;2.10;;;23.00;99.90;;;;;;6144258;23;20021;-89
2022/08/11 08:49:36;;;;;;;5.38;2.20;;;23.20;99.90;;;;;;6145567;23;20321;-89
2022/08/11 08:52:05;;;;;;;5.07;1.83;;;23.50;99.90;;;;;;6119251;23;20422;-89
2022/08/11 08:54:38;;;;;;;5.22;1.58;;;23.50;99.90;;;;;;6143826;23;20018;-89
2022/08/11 08:57:05;;;;;;;6.30;1.67;;;23.70;99.90;;;;;;6144072;23;20022;-89
2022/08/11 08:59:35;;;;;;;5.97;1.75;;;23.90;99.90;;;;;;6144092;23;20335;-89
2022/08/11 09:02:04;;;;;;;4.03;1.58;;;24.00;99.90;;;;;;6146255;23;20346;-89
2022/08/11 09:04:30;;;;;;;5.97;1.73;;;24.20;99.90;;;;;;6144951;22;20022;-89
2022/08/11 09:07:02;;;;;;;6.65;1.73;;;24.30;99.90;;;;;;6146720;23;20013;-90
2022/08/11 09:09:27;;;;;;;3.90;1.60;;;24.40;99.90;;;;;;6147430;23;20022;-89
2022/08/11 09:11:54;;;;;;;4.68;1.50;;;24.40;99.90;;;;;;6144991;23;20032;-90
2022/08/11 09:14:23;;;;;;;2.75;1.45;;;24.60;99.90;;;;;;6147013;22;20032;-89
2022/08/11 09:16:50;;;;;;;4.80;1.92;;;24.80;99.90;;;;;;6146766;22;20021;-90
2022/08/11 09:19:18;;;;;;;4.32;1.83;;;24.90;99.90;;;;;;6119854;23;20022;-90
2022/08/11 09:27:19;;;;;;;4.60;1.83;;;25.30;99.90;;;;;;6147199;23;20021;-89
2022/08/11 09:29:45;;;;;;;3.63;1.20;;;25.40;99.90;;;;;;6144663;22;20080;-90
2022/08/11 09:32:11;;;;;;;5.60;1.40;;;25.50;99.50;;;;;;6147046;23;20250;-89
2022/08/11 09:34:38;;;;;;;5.10;1.38;;;25.60;98.60;;;;;;6146629;22;20072;-90
2022/08/11 09:45:19;;;;;;;7.03;1.40;;;26.20;96.00;;;;;;6147477;23;20049;-90
2022/08/11 09:47:45;;;;;;;3.20;1.38;;;26.30;95.70;;;;;;6144355;23;20581;-90
2022/08/11 09:50:15;;;;;;;6.05;1.10;;;26.50;95.50;;;;;;6145184;23;20013;-90
2022/08/11 09:52:44;;;;;;;8.18;1.60;;;26.60;94.60;;;;;;6146392;23;20048;-90
2022/08/11 09:55:12;;;;;;;4.88;1.30;;;26.60;94.70;;;;;;6146557;23;20021;-89
2022/08/11 10:00:38;;;;;;;3.40;1.73;;;27.00;93.40;;;;;;6147388;23;20030;-90
2022/08/11 10:03:20;;;;;;;4.50;1.52;;;27.00;93.30;;;;;;6119954;23;20066;-90
2022/08/11 10:08:36;;;;;;;4.15;1.42;;;27.30;93.30;;;;;;6144276;23;20018;-90
2022/08/11 10:11:02;;;;;;;5.85;1.30;;;27.40;92.60;;;;;;6145075;23;20009;-89
2022/08/11 10:15:32;;;;;;;4.28;1.30;;;27.50;92.20;;;;;;6144528;23;20096;-90
2022/08/11 10:16:26;;;;;;;6.32;1.38;;;27.60;92.40;;;;;;6145745;23;20468;-89
2022/08/11 10:18:54;;;;;;;5.10;1.27;;;27.80;91.30;;;;;;6146163;23;20279;-90
2022/08/11 10:21:42;;;;;;;5.03;1.40;;;27.90;91.50;;;;;;6146983;23;20075;-90
2022/08/11 10:26:59;;;;;;;3.03;1.25;;;28.00;91.00;;;;;;6144976;23;20032;-90
2022/08/11 10:35:15;;;;;;;6.00;1.38;;;28.30;89.50;;;;;;6146714;23;20093;-90
2022/08/11 10:37:43;;;;;;;3.67;1.08;;;28.40;88.40;;;;;;6146151;23;20097;-90
2022/08/11 10:40:16;;;;;;;4.78;1.55;;;28.50;87.70;;;;;;6144593;22;20105;-90
2022/08/11 10:43:01;;;;;;;5.53;1.30;;;28.70;87.90;;;;;;6144663;23;20024;-89
2022/08/11 10:48:14;;;;;;;5.97;1.35;;;28.80;86.20;;;;;;6144842;23;20017;-91
2022/08/11 10:58:58;;;;;;;7.75;1.40;;;29.20;84.10;;;;;;6146672;23;20057;-90
2022/08/11 11:01:31;;;;;;;4.03;1.63;;;29.30;83.00;;;;;;6144476;22;20024;-90
2022/08/11 11:04:06;;;;;;;4.45;1.30;;;29.30;82.60;;;;;;6120101;23;20025;-90
2022/08/11 11:07:02;;;;;;;2.35;1.20;;;29.40;83.10;;;;;;6144769;23;20018;-90
2022/08/11 11:09:47;;;;;;;3.45;1.30;;;29.50;80.80;;;;;;6120099;23;20070;-90
2022/08/11 11:18:00;;;;;;;5.60;1.10;;;29.80;80.10;;;;;;6145175;23;20025;-91
2022/08/11 11:20:32;;;;;;;5.75;1.20;;;29.80;78.00;;;;;;6144721;23;20026;-90
2022/08/11 11:23:18;;;;;;;2.45;1.10;;;30.00;79.90;;;;;;6147165;23;20017;-90
2022/08/11 11:26:19;;;;;;;2.90;1.10;;;30.00;78.20;;;;;;6144281;23;20099;-91
2022/08/11 11:29:04;;;;;;;3.90;1.10;;;30.10;77.20;;;;;;6146047;23;20022;-91
2022/08/11 11:31:44;;;;;;;2.25;1.05;;;30.20;75.00;;;;;;6144759;23;20067;-90
2022/08/11 11:34:29;;;;;;;3.35;1.15;;;30.30;78.00;;;;;;6144899;23;20021;-90
2022/08/11 11:36:57;;;;;;;3.47;1.20;;;30.30;77.50;;;;;;6144368;22;20071;-91
2022/08/11 11:39:29;;;;;;;5.70;0.90;;;30.30;75.50;;;;;;6146771;23;20048;-90
2022/08/11 11:41:59;;;;;;;2.58;1.10;;;30.40;75.20;;;;;;6119928;23;20055;-90
2022/08/11 11:44:25;;;;;;;4.60;1.05;;;30.50;75.80;;;;;;6144797;23;20017;-90
2022/08/11 11:46:52;;;;;;;2.25;1.10;;;30.60;75.80;;;;;;6146124;22;20528;-91
2022/08/11 11:49:25;;;;;;;2.53;0.90;;;30.60;76.70;;;;;;6120364;23;20339;-90
2022/08/11 11:51:52;;;;;;;4.53;1.00;;;30.70;75.20;;;;;;6144306;23;20018;-90
2022/08/11 11:54:23;;;;;;;3.20;0.95;;;30.90;74.30;;;;;;6120497;23;20036;-91
2022/08/11 11:56:52;;;;;;;3.60;1.00;;;30.80;72.90;;;;;;6145613;23;20100;-90
2022/08/11 12:02:08;;;;;;;4.55;1.50;;;31.00;74.00;;;;;;6146555;23;20022;-90
2022/08/11 12:04:36;;;;;;;3.75;0.98;;;31.00;73.10;;;;;;6144107;23;20017;-90
2022/08/11 12:09:48;;;;;;;3.40;0.90;;;31.10;73.90;;;;;;6144202;23;20060;-90
2022/08/11 12:15:00;;;;;;;3.35;1.02;;;31.20;73.60;;;;;;6144349;23;20021;-90
2022/08/11 12:17:26;;;;;;;5.25;1.10;;;31.30;72.80;;;;;;6145904;22;20444;-90
2022/08/11 12:19:52;;;;;;;1.92;0.82;;;31.40;72.30;;;;;;6148056;23;20039;-90
2022/08/11 12:27:48;;;;;;;3.47;1.20;;;31.60;70.70;;;;;;6143923;23;20021;-90
2022/08/11 12:30:13;;;;;;;5.97;1.05;;;31.60;70.70;;;;;;6144211;22;20025;-90
2022/08/11 12:32:41;;;;;;;3.13;1.15;;;31.60;70.10;;;;;;6146653;22;20021;-91
2022/08/11 12:35:08;;;;;;;5.68;1.20;;;31.70;70.50;;;;;;6144588;23;20018;-90
2022/08/11 12:37:37;;;;;;;3.80;1.02;;;31.70;70.60;;;;;;6146668;23;20013;-91
2022/08/11 12:45:42;;;;;;;2.15;1.00;;;31.70;69.60;;;;;;6156762;23;20037;-90
2022/08/11 12:54:04;;;;;;;3.00;1.02;;;31.90;68.30;;;;;;6151339;23;20345;-89
2022/08/11 13:05:07;;;;;;;4.20;1.15;;;32.10;65.60;;;;;;6145127;23;20021;-91
2022/08/11 13:07:33;;;;;;;3.40;0.93;;;32.10;68.50;;;;;;6144094;22;20018;-90
2022/08/11 13:10:03;;;;;;;3.90;1.17;;;32.10;67.10;;;;;;6145915;23;20009;-91
2022/08/11 13:12:48;;;;;;;5.32;1.30;;;32.10;66.30;;;;;;6144025;23;20442;-90
2022/08/11 13:15:19;;;;;;;2.80;1.10;;;32.10;65.70;;;;;;6145761;23;20528;-91
2022/08/11 13:17:47;;;;;;;2.63;1.10;;;32.20;65.90;;;;;;6145189;23;20096;-90
2022/08/11 13:20:18;;;;;;;3.55;0.98;;;32.20;65.60;;;;;;6146167;23;20104;-90
2022/08/11 13:22:48;;;;;;;2.53;1.00;;;32.30;66.90;;;;;;6143589;23;20024;-90
2022/08/11 13:25:16;;;;;;;2.97;0.90;;;32.40;66.20;;;;;;6145443;23;20025;-91
2022/08/11 13:27:45;;;;;;;3.75;1.08;;;32.50;66.90;;;;;;6145088;23;20014;-91
2022/08/11 13:32:58;;;;;;;4.50;1.20;;;32.50;66.80;;;;;;6143479;23;20088;-91
2022/08/11 13:35:26;;;;;;;3.60;1.20;;;32.60;66.60;;;;;;6118907;23;20025;-90
2022/08/11 13:37:53;;;;;;;4.07;1.10;;;32.60;66.10;;;;;;6145296;23;20429;-90
2022/08/11 13:40:20;;;;;;;5.03;1.17;;;32.60;67.30;;;;;;6145561;23;20013;-91
2022/08/11 13:42:47;;;;;;;4.72;1.00;;;32.60;65.60;;;;;;6119007;23;20014;-91
2022/08/11 13:45:13;;;;;;;6.40;1.27;;;32.60;64.90;;;;;;6143708;23;20022;-90
2022/08/11 13:47:40;;;;;;;5.90;1.08;;;32.60;65.90;;;;;;6118946;23;20010;-91
2022/08/11 13:50:07;;;;;;;5.50;1.15;;;32.60;65.70;;;;;;6146473;23;20510;-90
2022/08/11 13:52:37;;;;;;;2.13;1.00;;;32.70;65.60;;;;;;6120400;23;20543;-91
2022/08/11 13:55:04;;;;;;;3.08;0.95;;;32.70;65.10;;;;;;6120135;23;20017;-90
2022/08/11 13:57:34;;;;;;;4.63;1.05;;;32.70;65.00;;;;;;6145321;23;20077;-90
2022/08/11 14:00:10;;;;;;;3.50;1.10;;;32.70;64.90;;;;;;6147190;23;20063;-90
2022/08/11 14:02:43;;;;;;;3.80;0.90;;;32.70;66.10;;;;;;6146844;23;20021;-90
2022/08/11 14:05:14;;;;;;;2.17;1.00;;;32.70;65.00;;;;;;6145184;23;20353;-90
2022/08/11 14:07:57;;;;;;;2.60;1.00;;;32.70;64.80;;;;;;6144887;22;20021;-91
2022/08/11 14:10:28;;;;;;;2.63;0.97;;;32.70;65.10;;;;;;6146816;23;20059;-90
2022/08/11 14:15:51;;;;;;;4.90;1.10;;;32.80;67.10;;;;;;6144575;23;20032;-90
2022/08/11 14:18:28;;;;;;;5.03;1.10;;;32.80;65.70;;;;;;6145189;23;20018;-90
2022/08/11 14:23:46;;;;;;;4.15;0.90;;;32.80;65.90;;;;;;6144239;23;20350;-90
2022/08/11 14:26:26;;;;;;;2.03;0.90;;;32.70;65.90;;;;;;6146839;23;20017;-91
2022/08/11 14:28:54;;;;;;;3.40;0.90;;;32.70;64.80;;;;;;6120164;23;20437;-90
2022/08/11 14:31:24;;;;;;;3.38;1.00;;;32.70;65.40;;;;;;6145154;23;20053;-91
2022/08/11 14:33:53;;;;;;;5.97;1.13;;;32.70;64.60;;;;;;6144145;22;20362;-90
2022/08/11 14:36:21;;;;;;;2.40;0.88;;;32.70;64.90;;;;;;6144952;23;20014;-90
2022/08/11 14:38:47;;;;;;;4.90;1.10;;;32.70;65.00;;;;;;6146267;23;20018;-90
2022/08/11 14:49:28;;;;;;;5.47;1.15;;;32.60;67.70;;;;;;6144555;23;20022;-91
2022/08/11 14:51:56;;;;;;;5.80;1.00;;;32.60;66.30;;;;;;6145858;23;20032;-90
2022/08/11 14:57:12;;;;;;;3.47;1.10;;;32.60;65.80;;;;;;6144932;23;20086;-91
2022/08/11 14:59:38;;;;;;;1.77;0.90;;;32.60;66.50;;;;;;6144441;23;20017;-91
2022/08/11 15:04:53;;;;;;;3.45;1.13;;;32.50;68.00;;;;;;6144786;23;20060;-90
2022/08/11 15:07:28;;;;;;;3.60;0.90;;;32.50;69.50;;;;;;6119858;23;20052;-90
2022/08/11 15:09:56;;;;;;;3.28;0.80;;;32.40;68.20;;;;;;6120124;23;20021;-90
2022/08/11 15:12:22;;;;;;;2.45;0.90;;;32.40;67.60;;;;;;6144660;23;20017;-90
2022/08/11 15:17:35;;;;;;;3.10;1.10;;;32.20;67.10;;;;;;6144497;23;20017;-89
2022/08/11 15:25:37;;;;;;;3.58;1.00;;;31.90;67.60;;;;;;6146657;23;20017;-91
2022/08/11 15:39:20;;;;;;;3.70;1.27;;;31.20;70.90;;;;;;6146644;23;20022;-90
2022/08/11 15:47:56;;;;;;;4.70;1.13;;;30.70;71.50;;;;;;6144630;23;20346;-90
2022/08/11 15:50:28;;;;;;;2.47;1.02;;;30.50;71.30;;;;;;6144032;22;20049;-90
2022/08/11 15:53:07;;;;;;;3.28;0.95;;;30.40;70.60;;;;;;6144500;23;20010;-90
2022/08/11 15:55:35;;;;;;;3.75;1.20;;;30.40;70.90;;;;;;6144223;22;20032;-90
2022/08/11 16:04:11;;;;;;;3.95;1.05;;;30.00;71.30;;;;;;6031475;23;20023;-90
2022/08/11 16:06:59;;;;;;;5.18;1.25;;;29.90;71.70;;;;;;6055460;23;20090;-90
2022/08/11 16:09:28;;;;;;;4.05;1.27;;;29.80;73.10;;;;;;6055899;23;20023;-90
2022/08/11 16:11:57;;;;;;;7.07;1.30;;;29.80;73.90;;;;;;6055054;23;20419;-90
2022/08/11 16:17:10;;;;;;;2.97;1.08;;;29.60;74.30;;;;;;6055957;23;20019;-90
2022/08/11 16:19:39;;;;;;;5.07;1.50;;;29.50;74.40;;;;;;6054680;23;20027;-90
2022/08/11 16:22:09;;;;;;;5.07;1.40;;;29.40;73.50;;;;;;6055666;23;20073;-90
2022/08/11 16:24:38;;;;;;;5.50;1.30;;;29.40;74.20;;;;;;6055146;23;20025;-89
2022/08/11 16:27:07;;;;;;;7.43;1.42;;;29.30;73.90;;;;;;6055872;23;20704;-90
2022/08/11 16:29:36;;;;;;;4.65;1.40;;;29.20;74.40;;;;;;6031442;23;20356;-90
2022/08/11 16:32:15;;;;;;;11.18;1.48;;;29.10;74.80;;;;;;6055869;23;20023;-89
2022/08/11 16:40:15;;;;;;;4.32;1.55;;;29.00;76.00;;;;;;6144653;23;20029;-90
2022/08/11 16:48:12;;;;;;;3.80;1.55;;;28.80;76.80;;;;;;6143983;23;20053;-90
2022/08/11 16:50:40;;;;;;;5.13;1.33;;;28.70;77.50;;;;;;6143834;23;20017;-90
2022/08/11 16:53:05;;;;;;;5.85;1.30;;;28.70;77.70;;;;;;6146316;23;20013;-89
2022/08/11 16:55:32;;;;;;;3.47;1.40;;;28.60;76.90;;;;;;6145593;22;20094;-90
2022/08/11 17:00:44;;;;;;;5.32;1.40;;;28.60;77.80;;;;;;6143712;23;20026;-90
2022/08/11 17:14:24;;;;;;;6.13;1.30;;;28.30;79.00;;;;;;6144015;23;20021;-90
2022/08/11 17:16:51;;;;;;;6.22;1.58;;;28.30;79.40;;;;;;6118207;23;20017;-89
2022/08/11 17:19:30;;;;;;;6.07;1.55;;;28.30;79.60;;;;;;6144013;23;20025;-90
2022/08/11 17:24:44;;;;;;;5.78;1.70;;;28.10;80.50;;;;;;6144676;23;20029;-89
2022/08/11 17:27:15;;;;;;;5.10;1.50;;;28.10;80.80;;;;;;6147435;23;20018;-89
2022/08/11 17:29:47;;;;;;;4.97;1.50;;;28.00;80.80;;;;;;6120504;23;20017;-89
2022/08/11 17:37:50;;;;;;;5.03;1.60;;;27.90;81.50;;;;;;6144747;23;20088;-90
2022/08/11 17:40:23;;;;;;;2.80;1.42;;;27.80;81.70;;;;;;6145700;23;20088;-89
2022/08/11 17:48:41;;;;;;;3.92;1.60;;;27.70;83.00;;;;;;6144821;23;20061;-89
2022/08/11 17:59:50;;;;;;;11.98;1.75;;;27.60;84.00;;;;;;6147133;23;20314;-90
2022/08/11 17:59:55;;;;;;;3.58;1.42;;;27.40;85.10;;;;;;6031658;23;20026;-90
2022/08/11 18:05:11;;;;;;;3.70;1.48;;;27.30;85.60;;;;;;6032256;23;20023;-90
